Time;durP1;ratioP1;P1;durP2;ratioP2;P2;SDS_P1;SDS_P2;PMS_P1;PMS_P2;Temp;Humidity;BMP_temperature;BMP_pressure;BME280_temperature;BME280_humidity;BME280_pressure;Samples;Min_cycle;Max_cycle;Signal;HPM_P1;HPM_P2
2022/12/28 00:00:31;;;;;;;25.42;15.00;;;;;;;;;;5061931;28;20147;-74
2022/12/28 00:02:57;;;;;;;22.38;12.60;;;;;;;;;;5066674;28;20029;-73
2022/12/28 00:05:23;;;;;;;22.33;12.90;;;;;;;;;;5068586;28;20069;-74
2022/12/28 00:07:49;;;;;;;21.27;12.70;;;;;;;;;;5061920;28;20028;-73
2022/12/28 00:10:15;;;;;;;22.73;13.65;;;;;;;;;;5068587;28;20476;-73
2022/12/28 00:12:41;;;;;;;20.00;12.55;;;;;;;;;;5065922;28;20033;-73
2022/12/28 00:15:07;;;;;;;46.20;24.88;;;;;;;;;;5057249;28;20097;-74
2022/12/28 00:17:33;;;;;;;49.95;28.80;;;;;;;;;;5066010;28;20063;-74
2022/12/28 00:19:59;;;;;;;60.22;33.42;;;;;;;;;;5066953;28;20086;-74
2022/12/28 00:22:26;;;;;;;44.97;24.17;;;;;;;;;;5066989;28;20024;-73
2022/12/28 00:24:52;;;;;;;26.08;16.00;;;;;;;;;;5063418;28;20547;-73
2022/12/28 00:27:18;;;;;;;21.58;11.30;;;;;;;;;;5066456;28;20036;-73
2022/12/28 00:29:44;;;;;;;19.08;11.23;;;;;;;;;;5067332;28;20127;-73
2022/12/28 00:32:10;;;;;;;15.50;8.93;;;;;;;;;;5066224;28;20088;-74
2022/12/28 00:34:36;;;;;;;17.48;9.50;;;;;;;;;;5058572;28;20404;-73
2022/12/28 00:37:02;;;;;;;17.70;11.27;;;;;;;;;;5061125;28;20038;-74
2022/12/28 00:39:28;;;;;;;14.00;8.68;;;;;;;;;;5063883;28;20421;-73
2022/12/28 00:41:54;;;;;;;17.92;11.27;;;;;;;;;;5059077;28;20076;-73
2022/12/28 00:44:20;;;;;;;27.40;19.35;;;;;;;;;;5064038;28;20075;-73
2022/12/28 00:46:47;;;;;;;27.10;19.02;;;;;;;;;;5068355;28;20028;-73
2022/12/28 00:49:13;;;;;;;31.40;22.98;;;;;;;;;;5066511;28;20037;-73
2022/12/28 00:51:39;;;;;;;25.38;17.25;;;;;;;;;;5066132;28;20035;-73
2022/12/28 00:54:05;;;;;;;22.40;15.18;;;;;;;;;;5066544;28;20041;-73
2022/12/28 00:56:31;;;;;;;22.42;14.40;;;;;;;;;;5065663;28;20036;-73
2022/12/28 00:58:58;;;;;;;20.98;12.55;;;;;;;;;;5066214;28;20044;-73
2022/12/28 01:01:24;;;;;;;14.35;7.72;;;;;;;;;;5063728;28;20040;-73
2022/12/28 01:03:50;;;;;;;12.82;6.57;;;;;;;;;;5061553;28;20070;-73
2022/12/28 01:06:17;;;;;;;10.18;5.95;;;;;;;;;;5067314;28;20040;-73
2022/12/28 01:08:44;;;;;;;12.23;6.28;;;;;;;;;;5063353;28;20033;-73
2022/12/28 01:11:11;;;;;;;9.38;5.53;;;;;;;;;;5061632;28;20025;-73
2022/12/28 01:13:37;;;;;;;9.45;5.82;;;;;;;;;;5065339;28;20111;-74
2022/12/28 01:16:19;;;;;;;12.45;7.32;;;;;;;;;;5065020;28;20032;-73
2022/12/28 01:18:46;;;;;;;13.70;7.05;;;;;;;;;;5057724;28;20036;-73
2022/12/28 01:21:16;;;;;;;13.20;6.63;;;;;;;;;;5066632;28;20059;-74
2022/12/28 01:23:42;;;;;;;13.13;6.82;;;;;;;;;;5067118;28;20135;-73
2022/12/28 01:26:08;;;;;;;10.57;6.55;;;;;;;;;;5064717;28;20490;-73
2022/12/28 01:28:34;;;;;;;10.15;6.22;;;;;;;;;;5066323;28;20111;-73
2022/12/28 01:31:07;;;;;;;8.52;4.80;;;;;;;;;;5060339;28;20059;-73
2022/12/28 01:33:33;;;;;;;10.52;5.25;;;;;;;;;;5063553;28;20036;-73
2022/12/28 01:36:04;;;;;;;9.00;4.72;;;;;;;;;;5062148;28;20036;-73
2022/12/28 01:38:30;;;;;;;8.63;4.97;;;;;;;;;;5065110;28;20225;-73
2022/12/28 01:40:56;;;;;;;8.82;4.68;;;;;;;;;;5067185;28;20197;-73
2022/12/28 01:43:39;;;;;;;8.07;4.88;;;;;;;;;;5065134;28;20028;-73
2022/12/28 01:46:05;;;;;;;10.85;5.07;;;;;;;;;;5055780;28;20032;-73
2022/12/28 01:48:32;;;;;;;10.32;6.22;;;;;;;;;;5054583;28;20028;-73
2022/12/28 01:50:58;;;;;;;11.38;6.88;;;;;;;;;;5062741;28;20037;-73
2022/12/28 01:53:24;;;;;;;10.30;6.15;;;;;;;;;;5062061;28;20033;-73
2022/12/28 01:55:50;;;;;;;11.15;5.55;;;;;;;;;;5059315;28;20060;-73
2022/12/28 01:58:19;;;;;;;11.00;6.32;;;;;;;;;;5063535;28;20032;-73
2022/12/28 02:00:45;;;;;;;9.77;5.78;;;;;;;;;;5058343;28;20029;-73
2022/12/28 02:03:14;;;;;;;13.07;6.55;;;;;;;;;;5061826;28;20068;-73
2022/12/28 02:05:43;;;;;;;11.45;5.93;;;;;;;;;;5059747;28;20502;-73
2022/12/28 02:08:22;;;;;;;8.32;5.00;;;;;;;;;;5065833;28;20491;-73
2022/12/28 02:10:49;;;;;;;9.60;5.03;;;;;;;;;;5062818;28;20478;-73
2022/12/28 02:13:16;;;;;;;12.13;6.45;;;;;;;;;;5066018;28;20028;-73
2022/12/28 02:15:43;;;;;;;9.98;4.85;;;;;;;;;;5062188;28;20033;-73
2022/12/28 02:18:09;;;;;;;13.93;6.05;;;;;;;;;;5061779;28;20139;-73
2022/12/28 02:20:47;;;;;;;12.02;5.95;;;;;;;;;;5065948;28;20037;-73
2022/12/28 02:23:19;;;;;;;21.73;11.80;;;;;;;;;;5059518;28;20044;-73
2022/12/28 02:25:48;;;;;;;27.10;17.52;;;;;;;;;;5055681;28;20033;-73
2022/12/28 02:28:33;;;;;;;31.85;20.73;;;;;;;;;;5065318;28;20024;-73
2022/12/28 02:31:02;;;;;;;30.70;17.00;;;;;;;;;;5057959;28;20522;-73
2022/12/28 02:33:49;;;;;;;24.92;15.10;;;;;;;;;;5064002;28;20093;-74
2022/12/28 02:36:21;;;;;;;17.10;9.27;;;;;;;;;;5066445;28;20045;-73
2022/12/28 02:38:47;;;;;;;;;;;;;;;;;;5070384;28;20039;-73
2022/12/28 02:41:15;;;;;;;13.82;7.57;;;;;;;;;;5067141;28;19912;-73
2022/12/28 02:43:41;;;;;;;12.65;7.10;;;;;;;;;;5068551;28;20028;-73
2022/12/28 02:52:18;;;;;;;9.48;4.93;;;;;;;;;;5055973;28;20087;-73
2022/12/28 02:57:55;;;;;;;9.15;5.63;;;;;;;;;;5065657;28;20044;-73
2022/12/28 03:00:24;;;;;;;12.50;6.60;;;;;;;;;;5064871;28;20119;-73
2022/12/28 03:03:02;;;;;;;11.02;5.78;;;;;;;;;;5064590;28;20033;-73
2022/12/28 03:08:55;;;;;;;10.98;5.32;;;;;;;;;;5067156;28;20028;-73
2022/12/28 03:11:30;;;;;;;9.32;5.68;;;;;;;;;;5031946;28;20433;-73
2022/12/28 03:14:02;;;;;;;10.75;5.60;;;;;;;;;;5064591;28;20106;-73
2022/12/28 03:25:41;;;;;;;8.73;5.25;;;;;;;;;;5066596;28;20090;-74
2022/12/28 03:33:08;;;;;;;7.15;4.20;;;;;;;;;;5068578;28;20043;-73
2022/12/28 03:35:44;;;;;;;10.25;5.40;;;;;;;;;;5065183;28;20068;-73
2022/12/28 03:38:12;;;;;;;10.10;4.50;;;;;;;;;;5068453;28;20032;-73
2022/12/28 03:40:44;;;;;;;8.52;4.22;;;;;;;;;;5068620;28;20032;-73
2022/12/28 03:46:07;;;;;;;7.47;4.35;;;;;;;;;;5056165;28;20415;-73
2022/12/28 03:48:36;;;;;;;10.10;5.00;;;;;;;;;;5064576;28;20056;-73
2022/12/28 03:51:02;;;;;;;9.90;4.70;;;;;;;;;;5064129;28;20116;-73
2022/12/28 03:53:30;;;;;;;10.43;4.70;;;;;;;;;;5067296;28;20458;-73
2022/12/28 03:56:06;;;;;;;13.70;5.68;;;;;;;;;;5062681;28;20127;-73
2022/12/28 03:58:32;;;;;;;9.13;5.60;;;;;;;;;;5065345;28;20154;-73
2022/12/28 04:00:58;;;;;;;11.05;5.88;;;;;;;;;;5061115;28;20523;-73
2022/12/28 04:03:24;;;;;;;12.73;5.60;;;;;;;;;;5057792;28;20089;-73
2022/12/28 04:05:50;;;;;;;10.00;5.65;;;;;;;;;;5060527;28;20036;-73
2022/12/28 04:08:16;;;;;;;10.07;5.20;;;;;;;;;;5065025;28;20091;-73
2022/12/28 04:10:42;;;;;;;11.50;6.45;;;;;;;;;;5064450;28;20028;-73
2022/12/28 04:13:08;;;;;;;13.05;7.68;;;;;;;;;;5065462;28;20048;-73
2022/12/28 04:15:34;;;;;;;12.98;6.63;;;;;;;;;;5064016;28;20033;-73
2022/12/28 04:18:03;;;;;;;10.82;7.55;;;;;;;;;;5065058;28;20473;-73
2022/12/28 04:20:29;;;;;;;11.85;7.55;;;;;;;;;;5062640;28;20056;-73
2022/12/28 04:22:55;;;;;;;10.65;6.45;;;;;;;;;;5064951;28;20071;-73
2022/12/28 04:25:21;;;;;;;13.07;7.65;;;;;;;;;;5067185;28;20039;-73
2022/12/28 04:27:47;;;;;;;8.55;5.47;;;;;;;;;;5052840;28;20132;-73
2022/12/28 04:30:13;;;;;;;8.20;5.07;;;;;;;;;;5067154;28;20122;-73
2022/12/28 04:32:39;;;;;;;9.65;5.47;;;;;;;;;;5061152;28;20574;-73
2022/12/28 04:35:05;;;;;;;9.75;5.00;;;;;;;;;;5065933;28;20089;-73
2022/12/28 04:37:31;;;;;;;8.43;4.95;;;;;;;;;;5066239;28;20131;-73
2022/12/28 04:39:57;;;;;;;9.43;5.95;;;;;;;;;;5065589;28;20705;-73
2022/12/28 04:42:24;;;;;;;9.23;5.38;;;;;;;;;;5067889;28;20038;-73
2022/12/28 04:44:50;;;;;;;12.57;6.10;;;;;;;;;;5060840;28;20033;-73
2022/12/28 04:47:16;;;;;;;10.90;6.82;;;;;;;;;;5067767;28;20035;-73
2022/12/28 04:49:42;;;;;;;9.40;5.10;;;;;;;;;;5065456;28;20056;-73
2022/12/28 04:52:08;;;;;;;11.25;6.78;;;;;;;;;;5061549;28;20031;-73
2022/12/28 04:54:34;;;;;;;12.70;7.50;;;;;;;;;;5058047;28;20117;-73
2022/12/28 04:57:00;;;;;;;12.38;6.95;;;;;;;;;;5065085;28;20032;-73
2022/12/28 04:59:26;;;;;;;16.45;9.23;;;;;;;;;;5060208;28;20036;-73
2022/12/28 05:01:52;;;;;;;13.60;7.75;;;;;;;;;;5066680;28;20040;-73
2022/12/28 05:04:18;;;;;;;14.40;7.68;;;;;;;;;;5062077;28;20033;-73
2022/12/28 05:06:44;;;;;;;15.70;8.27;;;;;;;;;;5062846;28;20102;-73
2022/12/28 05:09:10;;;;;;;13.98;7.90;;;;;;;;;;5064205;28;20028;-73
2022/12/28 05:11:36;;;;;;;16.67;8.57;;;;;;;;;;5058502;28;20043;-74
2022/12/28 05:14:02;;;;;;;14.10;7.97;;;;;;;;;;5065909;28;20036;-74
2022/12/28 05:16:28;;;;;;;12.38;5.90;;;;;;;;;;5064738;28;20024;-73
2022/12/28 05:18:57;;;;;;;13.90;7.05;;;;;;;;;;5055392;28;20045;-73
2022/12/28 05:21:24;;;;;;;16.98;9.20;;;;;;;;;;5063911;28;20070;-73
2022/12/28 05:23:51;;;;;;;18.00;7.95;;;;;;;;;;5067175;28;20056;-73
2022/12/28 05:26:18;;;;;;;13.30;7.03;;;;;;;;;;5065879;28;20029;-73
2022/12/28 05:28:44;;;;;;;12.10;7.28;;;;;;;;;;5064774;28;20486;-73
2022/12/28 05:31:11;;;;;;;9.60;5.28;;;;;;;;;;5056862;28;20028;-73
2022/12/28 05:33:37;;;;;;;8.75;4.53;;;;;;;;;;5063274;28;20491;-74
2022/12/28 05:36:11;;;;;;;11.88;4.88;;;;;;;;;;5065410;28;20074;-73
2022/12/28 05:38:37;;;;;;;8.32;4.78;;;;;;;;;;5063045;28;20032;-73
2022/12/28 05:41:11;;;;;;;11.70;5.50;;;;;;;;;;5066500;28;20071;-73
2022/12/28 05:43:38;;;;;;;11.77;6.50;;;;;;;;;;5065231;28;20032;-73
2022/12/28 05:46:05;;;;;;;9.15;5.50;;;;;;;;;;5066811;28;20033;-73
2022/12/28 05:48:32;;;;;;;11.68;5.53;;;;;;;;;;5064947;28;20020;-73
2022/12/28 05:51:00;;;;;;;8.20;5.03;;;;;;;;;;5065061;28;20041;-74
2022/12/28 05:53:26;;;;;;;9.68;5.03;;;;;;;;;;5065472;28;20082;-73
2022/12/28 05:55:52;;;;;;;10.80;4.88;;;;;;;;;;5065099;28;20060;-73
2022/12/28 05:58:18;;;;;;;9.35;4.75;;;;;;;;;;5063931;28;20570;-73
2022/12/28 06:00:44;;;;;;;9.90;4.43;;;;;;;;;;5065101;28;20040;-74
2022/12/28 06:03:10;;;;;;;9.82;4.60;;;;;;;;;;5066223;28;20037;-73
2022/12/28 06:05:36;;;;;;;8.07;3.92;;;;;;;;;;5062457;28;20116;-73
2022/12/28 06:08:01;;;;;;;7.90;4.40;;;;;;;;;;5060098;28;20021;-73
2022/12/28 06:10:27;;;;;;;6.85;3.83;;;;;;;;;;5066370;28;20785;-73
2022/12/28 06:12:53;;;;;;;9.57;5.80;;;;;;;;;;5068833;28;20035;-74
2022/12/28 06:15:19;;;;;;;8.57;4.22;;;;;;;;;;5067353;28;20486;-73
2022/12/28 06:17:45;;;;;;;8.02;3.70;;;;;;;;;;5067695;28;20128;-73
2022/12/28 06:20:11;;;;;;;12.43;8.02;;;;;;;;;;5065306;28;20044;-73
2022/12/28 06:22:37;;;;;;;11.25;5.43;;;;;;;;;;5064892;28;20107;-73
2022/12/28 06:25:03;;;;;;;9.13;5.20;;;;;;;;;;5068705;28;20482;-73
2022/12/28 06:27:29;;;;;;;8.25;5.07;;;;;;;;;;5067044;28;20035;-73
2022/12/28 06:29:55;;;;;;;9.95;5.82;;;;;;;;;;5070529;28;20040;-73
2022/12/28 06:32:21;;;;;;;9.75;5.35;;;;;;;;;;5069004;28;20712;-73
2022/12/28 06:34:47;;;;;;;7.28;4.65;;;;;;;;;;5069408;28;20037;-73
2022/12/28 06:37:13;;;;;;;10.18;4.90;;;;;;;;;;5065136;28;20111;-73
2022/12/28 06:39:39;;;;;;;9.10;4.05;;;;;;;;;;5069679;28;20368;-73
2022/12/28 06:42:05;;;;;;;8.27;4.85;;;;;;;;;;5067816;28;20056;-73
2022/12/28 06:44:31;;;;;;;9.65;4.90;;;;;;;;;;5067627;28;20158;-73
2022/12/28 06:46:57;;;;;;;11.65;5.47;;;;;;;;;;5068048;28;20473;-73
2022/12/28 06:49:23;;;;;;;11.27;7.05;;;;;;;;;;5063995;28;20040;-73
2022/12/28 06:51:49;;;;;;;13.80;8.18;;;;;;;;;;5068195;28;20689;-73
2022/12/28 06:54:15;;;;;;;13.55;9.07;;;;;;;;;;5063106;28;20056;-73
2022/12/28 06:56:41;;;;;;;11.85;7.90;;;;;;;;;;5066102;28;20028;-73
2022/12/28 06:59:07;;;;;;;12.30;7.68;;;;;;;;;;5066768;28;20052;-74
2022/12/28 07:01:35;;;;;;;10.60;6.55;;;;;;;;;;5069576;28;20036;-73
2022/12/28 07:04:01;;;;;;;10.52;6.72;;;;;;;;;;5066638;28;20037;-73
2022/12/28 07:06:29;;;;;;;14.90;7.30;;;;;;;;;;5067067;28;20027;-73
2022/12/28 07:08:58;;;;;;;8.82;5.32;;;;;;;;;;5067128;28;20031;-73
2022/12/28 07:11:24;;;;;;;6.95;3.83;;;;;;;;;;5068154;28;20040;-73
2022/12/28 07:13:50;;;;;;;12.88;6.38;;;;;;;;;;5083654;22;20367;-73
2022/12/28 07:16:18;;;;;;;15.40;9.05;;;;;;;;;;5085402;28;20069;-73
2022/12/28 07:18:44;;;;;;;15.13;9.18;;;;;;;;;;5085065;28;20028;-73
2022/12/28 07:21:11;;;;;;;13.73;8.02;;;;;;;;;;5082984;28;20033;-73
2022/12/28 07:23:37;;;;;;;14.25;6.22;;;;;;;;;;5085966;28;20043;-73
2022/12/28 07:26:08;;;;;;;12.07;6.32;;;;;;;;;;5086743;28;20040;-73
2022/12/28 07:28:36;;;;;;;10.93;5.57;;;;;;;;;;5087408;28;20032;-73
2022/12/28 07:31:10;;;;;;;11.98;5.70;;;;;;;;;;5082020;28;20032;-73
2022/12/28 07:33:46;;;;;;;10.77;5.93;;;;;;;;;;5081388;28;20032;-74
2022/12/28 07:36:13;;;;;;;10.10;5.80;;;;;;;;;;5083092;28;20184;-74
2022/12/28 07:38:40;;;;;;;11.70;6.32;;;;;;;;;;5073730;28;20123;-74
2022/12/28 07:41:10;;;;;;;15.40;8.65;;;;;;;;;;5080289;28;20035;-74
2022/12/28 07:43:36;;;;;;;17.02;9.85;;;;;;;;;;5081971;28;20111;-74
2022/12/28 07:46:06;;;;;;;15.00;8.52;;;;;;;;;;5083212;28;21795;-74
2022/12/28 07:48:33;;;;;;;15.98;9.52;;;;;;;;;;5084991;28;20642;-75
2022/12/28 07:51:05;;;;;;;15.85;9.20;;;;;;;;;;5083569;28;20038;-74
2022/12/28 07:53:31;;;;;;;14.95;9.00;;;;;;;;;;5076976;28;20035;-74
2022/12/28 07:55:58;;;;;;;13.50;7.55;;;;;;;;;;5082363;28;20031;-74
2022/12/28 07:58:24;;;;;;;14.48;7.63;;;;;;;;;;5082929;28;20035;-74
2022/12/28 08:00:50;;;;;;;16.48;9.35;;;;;;;;;;5083800;28;20062;-74
2022/12/28 08:03:16;;;;;;;14.05;8.10;;;;;;;;;;5086231;28;20036;-74
2022/12/28 08:05:42;;;;;;;13.68;9.23;;;;;;;;;;5077687;28;20043;-74
2022/12/28 08:08:08;;;;;;;14.50;8.02;;;;;;;;;;5082072;28;20032;-74
2022/12/28 08:10:34;;;;;;;14.18;8.88;;;;;;;;;;5084442;28;20027;-74
2022/12/28 08:13:00;;;;;;;14.80;8.35;;;;;;;;;;5081405;28;20776;-74
2022/12/28 08:15:27;;;;;;;15.23;9.10;;;;;;;;;;5083133;28;20052;-74
2022/12/28 08:17:53;;;;;;;16.60;10.00;;;;;;;;;;5081343;28;20032;-74
2022/12/28 08:20:19;;;;;;;13.93;8.80;;;;;;;;;;5082438;28;20032;-74
2022/12/28 08:22:45;;;;;;;15.13;8.90;;;;;;;;;;5065608;28;20043;-74
2022/12/28 08:25:11;;;;;;;21.90;10.18;;;;;;;;;;5086317;28;20032;-74
2022/12/28 08:27:37;;;;;;;12.57;7.97;;;;;;;;;;5064348;28;20073;-74
2022/12/28 08:30:03;;;;;;;19.67;12.52;;;;;;;;;;5084180;28;20031;-73
2022/12/28 08:32:29;;;;;;;19.80;12.05;;;;;;;;;;5086207;28;20032;-73
2022/12/28 08:34:55;;;;;;;17.85;11.48;;;;;;;;;;5084191;28;20584;-74
2022/12/28 08:37:22;;;;;;;22.05;12.70;;;;;;;;;;5084343;28;20047;-74
2022/12/28 08:39:48;;;;;;;23.55;13.73;;;;;;;;;;5085550;28;20475;-73
2022/12/28 08:42:14;;;;;;;21.38;12.50;;;;;;;;;;5083756;28;20040;-74
2022/12/28 08:44:40;;;;;;;21.88;12.90;;;;;;;;;;5087067;28;20020;-74
2022/12/28 08:47:06;;;;;;;24.95;14.52;;;;;;;;;;5083377;28;20062;-74
2022/12/28 08:49:32;;;;;;;23.95;15.63;;;;;;;;;;5085599;28;20024;-74
2022/12/28 08:51:58;;;;;;;15.65;10.85;;;;;;;;;;5085618;28;20036;-74
2022/12/28 08:54:24;;;;;;;22.85;11.85;;;;;;;;;;5085962;28;20024;-74
2022/12/28 08:56:50;;;;;;;18.20;10.15;;;;;;;;;;5086680;28;20039;-75
2022/12/28 08:59:17;;;;;;;18.38;12.50;;;;;;;;;;5086062;28;20042;-74
2022/12/28 09:01:43;;;;;;;16.98;9.27;;;;;;;;;;5085857;28;20044;-74
2022/12/28 09:04:12;;;;;;;15.30;9.30;;;;;;;;;;5084737;28;20069;-74
2022/12/28 09:06:38;;;;;;;14.82;9.60;;;;;;;;;;5079445;28;20360;-74
2022/12/28 09:09:10;;;;;;;15.32;9.05;;;;;;;;;;5080789;28;20028;-74
2022/12/28 09:11:37;;;;;;;16.30;8.60;;;;;;;;;;5061057;28;20036;-74
2022/12/28 09:14:04;;;;;;;13.13;7.95;;;;;;;;;;5064731;28;20053;-74
2022/12/28 09:16:30;;;;;;;16.02;10.15;;;;;;;;;;5059861;28;20054;-74
2022/12/28 09:18:57;;;;;;;16.88;11.18;;;;;;;;;;5057752;28;20033;-74
2022/12/28 09:21:25;;;;;;;17.05;10.52;;;;;;;;;;5057839;28;20107;-74
2022/12/28 09:23:51;;;;;;;17.30;11.35;;;;;;;;;;5068820;28;20033;-74
2022/12/28 09:26:21;;;;;;;23.85;15.23;;;;;;;;;;5059067;28;20036;-74
2022/12/28 09:28:49;;;;;;;18.27;11.13;;;;;;;;;;5056293;28;20052;-74
2022/12/28 09:31:15;;;;;;;22.58;13.45;;;;;;;;;;5061470;28;20492;-74
2022/12/28 09:33:59;;;;;;;20.35;13.90;;;;;;;;;;5056873;28;20028;-74
2022/12/28 09:36:26;;;;;;;32.25;19.65;;;;;;;;;;5060056;28;20755;-74
2022/12/28 09:38:52;;;;;;;28.05;19.17;;;;;;;;;;5056511;28;20069;-74
2022/12/28 09:41:24;;;;;;;26.70;17.67;;;;;;;;;;5064355;28;20041;-74
2022/12/28 09:43:53;;;;;;;24.83;17.70;;;;;;;;;;5063777;28;20029;-74
2022/12/28 09:46:20;;;;;;;25.30;17.13;;;;;;;;;;5063699;28;20032;-74
2022/12/28 09:48:50;;;;;;;27.95;18.08;;;;;;;;;;5054685;28;20028;-74
2022/12/28 09:51:16;;;;;;;30.63;19.58;;;;;;;;;;5063565;28;20047;-74
2022/12/28 09:53:42;;;;;;;30.77;19.65;;;;;;;;;;5063604;28;20037;-74
2022/12/28 09:56:18;;;;;;;28.73;19.95;;;;;;;;;;5058621;28;20131;-74
2022/12/28 09:58:44;;;;;;;26.70;19.25;;;;;;;;;;5058863;28;20036;-74
2022/12/28 10:01:12;;;;;;;25.58;16.50;;;;;;;;;;5057824;28;20041;-74
2022/12/28 10:03:39;;;;;;;23.98;15.93;;;;;;;;;;5064625;28;20025;-74
2022/12/28 10:06:12;;;;;;;24.67;17.33;;;;;;;;;;5063107;28;20104;-74
2022/12/28 10:08:40;;;;;;;26.20;16.95;;;;;;;;;;5056240;28;20118;-74
2022/12/28 10:11:06;;;;;;;27.52;16.33;;;;;;;;;;5040114;28;20367;-74
2022/12/28 10:13:37;;;;;;;28.02;17.00;;;;;;;;;;5058668;28;20032;-74
2022/12/28 10:16:04;;;;;;;41.03;25.08;;;;;;;;;;5058239;28;20132;-74
2022/12/28 10:18:30;;;;;;;46.22;25.58;;;;;;;;;;5064448;28;20078;-74
2022/12/28 10:20:56;;;;;;;35.55;20.25;;;;;;;;;;5059699;28;20137;-74
2022/12/28 10:23:24;;;;;;;25.60;15.68;;;;;;;;;;5061712;28;20108;-74
2022/12/28 10:25:51;;;;;;;36.85;22.90;;;;;;;;;;5059412;28;20536;-74
2022/12/28 10:28:20;;;;;;;47.05;29.65;;;;;;;;;;5063396;28;20040;-74
2022/12/28 10:30:47;;;;;;;34.53;23.40;;;;;;;;;;5061070;28;20079;-74
2022/12/28 10:33:17;;;;;;;32.05;22.38;;;;;;;;;;5063905;28;20064;-74
2022/12/28 10:35:50;;;;;;;28.45;17.33;;;;;;;;;;5062111;28;20042;-74
2022/12/28 10:38:28;;;;;;;34.92;21.23;;;;;;;;;;5060053;28;20131;-75
2022/12/28 10:41:02;;;;;;;26.85;15.20;;;;;;;;;;5065558;28;20037;-75
2022/12/28 10:43:29;;;;;;;29.35;17.38;;;;;;;;;;5059087;28;20495;-75
2022/12/28 10:45:55;;;;;;;23.10;13.50;;;;;;;;;;5065971;28;20032;-75
2022/12/28 10:48:24;;;;;;;23.55;14.50;;;;;;;;;;5062150;28;20071;-74
2022/12/28 10:50:54;;;;;;;22.10;14.18;;;;;;;;;;5063930;28;20071;-74
2022/12/28 10:53:23;;;;;;;16.63;9.60;;;;;;;;;;5061335;28;20063;-75
2022/12/28 10:55:49;;;;;;;13.63;6.82;;;;;;;;;;5057308;28;20028;-74
2022/12/28 10:58:24;;;;;;;11.48;6.15;;;;;;;;;;5068027;28;20068;-75
2022/12/28 11:00:58;;;;;;;14.93;8.98;;;;;;;;;;5067350;28;20039;-74
2022/12/28 11:03:25;;;;;;;15.93;9.98;;;;;;;;;;5067924;28;20033;-75
2022/12/28 11:06:06;;;;;;;17.70;9.02;;;;;;;;;;5064464;28;20114;-75
2022/12/28 11:08:32;;;;;;;13.38;6.28;;;;;;;;;;5057663;28;20034;-74
2022/12/28 11:10:58;;;;;;;10.18;4.35;;;;;;;;;;5068143;28;20032;-74
2022/12/28 11:13:26;;;;;;;9.75;4.32;;;;;;;;;;5069377;28;20043;-75
2022/12/28 11:15:52;;;;;;;15.48;7.05;;;;;;;;;;5053949;28;20112;-75
2022/12/28 11:18:19;;;;;;;12.43;5.03;;;;;;;;;;5063099;28;20033;-75
2022/12/28 11:20:46;;;;;;;10.82;5.43;;;;;;;;;;5062494;28;20028;-75
2022/12/28 11:23:23;;;;;;;12.77;5.28;;;;;;;;;;5069269;28;20033;-75
2022/12/28 11:25:49;;;;;;;13.80;6.10;;;;;;;;;;5065563;28;20047;-75
2022/12/28 11:28:16;;;;;;;16.38;6.65;;;;;;;;;;5071621;28;20085;-75
2022/12/28 11:30:43;;;;;;;11.15;6.13;;;;;;;;;;5063962;28;20498;-74
2022/12/28 11:33:22;;;;;;;13.15;5.57;;;;;;;;;;5068460;28;20383;-75
2022/12/28 11:35:49;;;;;;;11.35;8.00;;;;;;;;;;5062025;28;20052;-75
2022/12/28 11:38:35;;;;;;;11.68;6.43;;;;;;;;;;5063347;28;20112;-75
2022/12/28 11:41:01;;;;;;;7.55;4.80;;;;;;;;;;5065633;28;20119;-75
2022/12/28 11:43:30;;;;;;;7.47;4.20;;;;;;;;;;5072692;28;20044;-75
2022/12/28 11:46:00;;;;;;;7.05;3.80;;;;;;;;;;5064464;28;20020;-74
2022/12/28 11:48:41;;;;;;;8.00;4.30;;;;;;;;;;5063574;28;20071;-75
2022/12/28 11:51:16;;;;;;;10.63;5.57;;;;;;;;;;5062109;28;20033;-75
2022/12/28 11:53:45;;;;;;;15.68;9.20;;;;;;;;;;5064158;28;20034;-75
2022/12/28 11:56:18;;;;;;;13.70;7.78;;;;;;;;;;5058646;28;20593;-75
2022/12/28 11:59:00;;;;;;;19.08;10.18;;;;;;;;;;5060961;28;20051;-75
2022/12/28 12:01:26;;;;;;;15.65;10.95;;;;;;;;;;5061250;28;20032;-75
2022/12/28 12:03:59;;;;;;;16.08;11.02;;;;;;;;;;5062905;28;20028;-75
2022/12/28 12:06:47;;;;;;;8.10;4.75;;;;;;;;;;5061729;28;20028;-75
2022/12/28 12:09:26;;;;;;;11.18;7.05;;;;;;;;;;5056307;28;20103;-75
2022/12/28 12:11:56;;;;;;;9.88;4.40;;;;;;;;;;5063344;28;20526;-75
2022/12/28 12:14:22;;;;;;;7.38;3.75;;;;;;;;;;5062977;28;20491;-75
2022/12/28 12:16:53;;;;;;;9.77;5.60;;;;;;;;;;5061689;28;20047;-75
2022/12/28 12:19:25;;;;;;;10.05;5.30;;;;;;;;;;5059427;28;20068;-75
2022/12/28 12:21:58;;;;;;;10.35;5.30;;;;;;;;;;5066247;28;20098;-75
2022/12/28 12:24:36;;;;;;;9.90;4.18;;;;;;;;;;5061720;28;20044;-75
2022/12/28 12:27:02;;;;;;;10.43;4.93;;;;;;;;;;5066265;28;20039;-74
2022/12/28 12:29:36;;;;;;;16.80;7.10;;;;;;;;;;5061287;28;20036;-74
2022/12/28 12:32:22;;;;;;;12.93;7.60;;;;;;;;;;5063904;28;20047;-75
2022/12/28 12:35:01;;;;;;;10.07;4.38;;;;;;;;;;5057030;28;20375;-75
2022/12/28 12:37:27;;;;;;;8.75;4.45;;;;;;;;;;5065068;28;20056;-75
2022/12/28 12:40:08;;;;;;;8.38;3.80;;;;;;;;;;5067891;28;20390;-75
2022/12/28 12:42:45;;;;;;;10.73;3.35;;;;;;;;;;5062125;28;20024;-75
2022/12/28 12:45:34;;;;;;;8.90;4.10;;;;;;;;;;5060112;28;20092;-75
2022/12/28 12:48:20;;;;;;;10.90;4.45;;;;;;;;;;5024830;28;20133;-75
2022/12/28 12:50:49;;;;;;;11.02;3.85;;;;;;;;;;5066299;28;20044;-75
2022/12/28 12:53:29;;;;;;;12.40;3.65;;;;;;;;;;5060074;28;20037;-75
2022/12/28 12:56:02;;;;;;;5.38;2.13;;;;;;;;;;5066452;28;20537;-75
2022/12/28 12:58:46;;;;;;;4.97;1.95;;;;;;;;;;5056719;28;20024;-75
2022/12/28 13:01:12;;;;;;;6.20;2.15;;;;;;;;;;5062505;28;20070;-75
2022/12/28 13:03:44;;;;;;;12.23;5.13;;;;;;;;;;5064592;28;20033;-76
2022/12/28 13:06:12;;;;;;;17.25;8.27;;;;;;;;;;5062487;28;20066;-75
2022/12/28 13:08:46;;;;;;;20.10;10.15;;;;;;;;;;5057497;28;20025;-75
2022/12/28 13:11:12;;;;;;;17.45;9.90;;;;;;;;;;5055794;28;20099;-75
2022/12/28 13:13:39;;;;;;;16.52;8.98;;;;;;;;;;5060806;28;20039;-75
2022/12/28 13:16:09;;;;;;;15.10;7.75;;;;;;;;;;5062270;28;20064;-75
2022/12/28 13:18:35;;;;;;;17.00;7.43;;;;;;;;;;5057936;28;20036;-75
2022/12/28 13:21:02;;;;;;;16.58;6.80;;;;;;;;;;5064742;28;20040;-75
2022/12/28 13:23:30;;;;;;;16.67;8.82;;;;;;;;;;5061590;28;20028;-75
2022/12/28 13:25:57;;;;;;;29.27;14.63;;;;;;;;;;5071523;28;20544;-75
2022/12/28 13:28:31;;;;;;;26.05;15.23;;;;;;;;;;5060139;28;20029;-75
2022/12/28 13:30:58;;;;;;;17.73;10.55;;;;;;;;;;5063854;28;20037;-74
2022/12/28 13:33:24;;;;;;;18.70;10.80;;;;;;;;;;5055291;28;20064;-75
2022/12/28 13:35:50;;;;;;;17.50;10.18;;;;;;;;;;5064006;28;20072;-75
2022/12/28 13:38:17;;;;;;;14.00;5.90;;;;;;;;;;5062180;28;20455;-75
2022/12/28 13:40:50;;;;;;;10.38;6.60;;;;;;;;;;5062254;28;20427;-75
2022/12/28 13:43:29;;;;;;;11.77;6.40;;;;;;;;;;5060204;28;20120;-75
2022/12/28 13:45:58;;;;;;;11.63;6.13;;;;;;;;;;5057227;28;20467;-75
2022/12/28 13:48:25;;;;;;;9.48;4.75;;;;;;;;;;5062292;28;20035;-75
2022/12/28 13:50:52;;;;;;;10.55;4.97;;;;;;;;;;5057862;28;20411;-75
2022/12/28 13:53:23;;;;;;;34.38;15.45;;;;;;;;;;5064881;28;20090;-75
2022/12/28 13:55:51;;;;;;;46.40;18.60;;;;;;;;;;5063708;28;20522;-75
2022/12/28 13:58:23;;;;;;;37.85;18.52;;;;;;;;;;5062478;28;20451;-75
2022/12/28 14:00:51;;;;;;;23.38;10.98;;;;;;;;;;5057325;28;20075;-75
2022/12/28 14:03:18;;;;;;;42.53;20.98;;;;;;;;;;5055561;28;20033;-75
2022/12/28 14:05:46;;;;;;;38.92;18.17;;;;;;;;;;5061720;28;20031;-74
2022/12/28 14:08:13;;;;;;;33.42;15.35;;;;;;;;;;5064224;28;20032;-75
2022/12/28 14:10:40;;;;;;;24.38;13.55;;;;;;;;;;5060846;28;20036;-75
2022/12/28 14:13:06;;;;;;;28.48;14.63;;;;;;;;;;5065210;28;20064;-75
2022/12/28 14:15:34;;;;;;;16.67;8.80;;;;;;;;;;5058782;28;20056;-75
2022/12/28 14:18:00;;;;;;;15.48;7.03;;;;;;;;;;5062777;28;20044;-75
2022/12/28 14:20:26;;;;;;;8.68;3.38;;;;;;;;;;5064363;28;20029;-75
2022/12/28 14:22:52;;;;;;;11.85;4.30;;;;;;;;;;5059525;28;20039;-74
2022/12/28 14:25:21;;;;;;;7.53;3.67;;;;;;;;;;5059965;28;20486;-74
2022/12/28 14:28:04;;;;;;;6.40;3.00;;;;;;;;;;5061388;28;20128;-75
2022/12/28 14:30:33;;;;;;;15.00;6.10;;;;;;;;;;5067669;28;20024;-75
2022/12/28 14:33:01;;;;;;;12.45;6.85;;;;;;;;;;5061765;28;20036;-75
2022/12/28 14:35:28;;;;;;;15.98;9.48;;;;;;;;;;5068190;28;20489;-75
2022/12/28 14:37:55;;;;;;;17.73;9.70;;;;;;;;;;5063886;28;20033;-75
2022/12/28 14:40:27;;;;;;;15.68;8.48;;;;;;;;;;5067687;28;20112;-75
2022/12/28 14:42:53;;;;;;;12.75;6.78;;;;;;;;;;5061384;28;20039;-75
2022/12/28 14:45:36;;;;;;;22.60;10.70;;;;;;;;;;5063530;28;20028;-76
2022/12/28 14:48:02;;;;;;;;;;;;;;;;;;5069354;28;20033;-75
2022/12/28 14:50:30;;;;;;;17.67;10.60;;;;;;;;;;5068586;28;20585;-75
2022/12/28 14:53:16;;;;;;;15.15;7.65;;;;;;;;;;5070006;28;20029;-75
2022/12/28 14:55:54;;;;;;;16.30;10.20;;;;;;;;;;5067319;28;20375;-75
2022/12/28 14:58:32;;;;;;;20.33;11.25;;;;;;;;;;5063629;28;20037;-75
2022/12/28 15:00:59;;;;;;;18.13;10.00;;;;;;;;;;5065672;28;20035;-75
2022/12/28 15:03:29;;;;;;;17.92;10.02;;;;;;;;;;5065744;28;20039;-75
2022/12/28 15:05:59;;;;;;;15.93;10.13;;;;;;;;;;5058873;28;20029;-75